createdAt,value
2018-03-24T00:02:14.290Z,99.90
2018-03-24T00:04:42.663Z,99.90
2018-03-24T00:07:10.204Z,99.90
2018-03-24T00:09:37.758Z,99.90
2018-03-24T00:12:06.101Z,99.90
2018-03-24T00:14:33.640Z,99.90
2018-03-24T00:17:01.172Z,99.90
2018-03-24T00:19:28.744Z,99.90
2018-03-24T00:21:56.384Z,99.90
2018-03-24T00:24:23.920Z,99.90
2018-03-24T00:26:51.860Z,99.90
2018-03-24T00:29:19.404Z,99.90
2018-03-24T00:31:46.944Z,99.90
2018-03-24T00:34:25.423Z,99.90
2018-03-24T00:39:38.385Z,99.90
2018-03-24T00:42:05.952Z,99.90
2018-03-24T00:44:33.504Z,99.90
2018-03-24T00:47:01.128Z,99.90
2018-03-24T00:49:28.664Z,99.90
2018-03-24T00:51:56.208Z,99.90
2018-03-24T00:54:23.778Z,99.90
2018-03-24T00:56:51.720Z,99.90
2018-03-24T00:59:19.884Z,99.90
2018-03-24T01:01:47.461Z,99.90
2018-03-24T01:04:17.182Z,99.90
2018-03-24T01:06:44.728Z,99.90
2018-03-24T01:09:12.655Z,99.90
2018-03-24T01:11:40.241Z,99.90
2018-03-24T01:14:07.797Z,99.90
2018-03-24T01:16:35.404Z,99.90
2018-03-24T01:19:02.946Z,99.90
2018-03-24T01:21:30.511Z,99.90
2018-03-24T01:23:58.228Z,99.90
2018-03-24T02:47:00.907Z,99.90
2018-03-24T02:49:28.448Z,99.90
2018-03-24T02:51:56.006Z,99.90
2018-03-24T02:54:23.589Z,99.90
2018-03-24T02:56:51.143Z,99.90
2018-03-24T02:59:18.680Z,99.90
2018-03-24T03:01:46.269Z,99.90
2018-03-24T03:04:16.362Z,99.90
2018-03-24T03:06:43.913Z,99.90
2018-03-24T03:09:11.961Z,99.90
2018-03-24T03:11:39.533Z,99.90
2018-03-24T03:14:07.079Z,99.90
2018-03-24T03:16:35.413Z,99.90
2018-03-24T03:19:02.958Z,99.90
2018-03-24T03:21:42.436Z,99.90
2018-03-24T03:24:09.978Z,99.90
2018-03-24T03:26:37.519Z,99.90
2018-03-24T03:29:05.412Z,99.90
2018-03-24T03:31:32.952Z,99.90
2018-03-24T03:34:00.497Z,99.90
2018-03-24T03:36:28.060Z,99.90
2018-03-24T03:38:55.609Z,99.90
2018-03-24T03:41:23.174Z,99.90
2018-03-24T03:43:50.751Z,99.90
2018-03-24T03:46:18.294Z,99.90
2018-03-24T03:48:46.068Z,99.90
2018-03-24T03:51:15.970Z,99.90
2018-03-24T03:53:43.512Z,99.90
2018-03-24T03:56:11.055Z,99.90
2018-03-24T03:58:39.419Z,99.90
2018-03-24T04:01:06.957Z,99.90
2018-03-24T04:03:34.510Z,99.90
2018-03-24T04:06:02.097Z,99.90
2018-03-24T04:08:29.648Z,99.90
2018-03-24T04:10:57.196Z,99.90
2018-03-24T04:13:24.999Z,99.90
2018-03-24T04:15:52.549Z,99.90
2018-03-24T04:18:20.869Z,99.90
2018-03-24T04:20:48.486Z,99.90
2018-03-24T04:23:16.441Z,99.90
2018-03-24T04:25:44.038Z,99.90
2018-03-24T04:28:11.626Z,99.90
2018-03-24T04:30:39.175Z,99.90
2018-03-24T04:33:06.721Z,99.90
2018-03-24T04:35:34.365Z,99.90
2018-03-24T04:38:02.677Z,99.90
2018-03-24T04:40:30.231Z,99.90
2018-03-24T04:42:57.819Z,99.90
2018-03-24T04:45:25.367Z,99.90
2018-03-24T04:47:52.916Z,99.90
2018-03-24T04:50:20.999Z,99.90
2018-03-24T04:52:48.547Z,99.90
2018-03-24T04:55:17.355Z,99.90
2018-03-24T04:57:45.423Z,99.90
2018-03-24T05:00:23.702Z,99.90
2018-03-24T05:05:22.407Z,99.90
2018-03-24T05:07:50.712Z,99.90
2018-03-24T05:10:19.172Z,99.90
2018-03-24T05:12:46.809Z,99.90
2018-03-24T05:15:16.364Z,99.90
2018-03-24T05:17:43.908Z,99.90
2018-03-24T05:20:11.497Z,99.90
2018-03-24T05:22:39.032Z,99.90
2018-03-24T05:25:06.588Z,99.90
2018-03-24T05:27:34.157Z,99.90
2018-03-24T05:30:01.704Z,99.90
2018-03-24T05:32:29.258Z,99.90
2018-03-24T05:34:57.583Z,99.90
2018-03-24T05:37:25.124Z,99.90
2018-03-24T05:39:52.747Z,99.90
2018-03-24T05:42:20.325Z,99.90
2018-03-24T05:44:47.869Z,99.90
2018-03-24T05:47:17.204Z,99.90
2018-03-24T05:49:44.780Z,99.90
2018-03-24T05:52:12.608Z,99.90
2018-03-24T05:54:40.152Z,99.90
2018-03-24T05:57:08.075Z,99.90
2018-03-24T05:59:35.621Z,99.90
2018-03-24T06:02:03.176Z,99.90
2018-03-24T06:04:30.941Z,99.90
2018-03-24T06:06:58.479Z,99.90
2018-03-24T06:09:26.016Z,99.90
2018-03-24T06:11:54.384Z,99.90
2018-03-24T06:14:22.288Z,99.90
2018-03-24T06:16:49.916Z,99.90
2018-03-24T06:19:17.692Z,99.90
2018-03-24T06:21:46.046Z,99.90
2018-03-24T06:24:25.455Z,99.90
2018-03-24T06:26:53.056Z,99.90
2018-03-24T06:29:20.609Z,99.90
2018-03-24T06:31:54.039Z,99.90
2018-03-24T06:34:21.656Z,99.90
2018-03-24T06:39:48.688Z,99.90
2018-03-24T06:42:17.656Z,99.90
2018-03-24T06:44:46.045Z,99.90
2018-03-24T06:47:15.359Z,99.90
2018-03-24T06:49:42.942Z,99.90
2018-03-24T06:52:10.496Z,99.90
2018-03-24T06:54:38.963Z,99.90
2018-03-24T06:57:07.310Z,99.90
2018-03-24T06:59:35.683Z,99.90
2018-03-24T07:02:03.996Z,99.90
2018-03-24T07:04:31.568Z,99.90
2018-03-24T07:06:59.127Z,99.90
2018-03-24T07:09:26.668Z,99.90
2018-03-24T07:11:54.267Z,99.90
2018-03-24T07:14:21.804Z,99.90
2018-03-24T07:16:49.341Z,98.80
2018-03-24T07:19:17.466Z,93.90
2018-03-24T07:21:45.018Z,87.10
2018-03-24T07:24:12.565Z,74.70
2018-03-24T07:26:40.137Z,65.40
2018-03-24T07:29:07.689Z,61.10
2018-03-24T07:31:35.315Z,60.30
2018-03-24T07:34:02.892Z,55.20
2018-03-24T07:36:30.470Z,50.50
2018-03-24T07:38:58.023Z,50.00
2018-03-24T07:41:25.939Z,48.70
2018-03-24T07:43:54.292Z,44.40
2018-03-24T07:46:21.879Z,44.30
2018-03-24T07:48:49.472Z,41.90
2018-03-24T07:51:17.051Z,41.30
2018-03-24T07:53:44.653Z,39.60
2018-03-24T07:56:12.715Z,39.50
2018-03-24T07:58:40.308Z,39.30
2018-03-24T08:01:08.645Z,39.90
2018-03-24T08:03:36.640Z,39.80
2018-03-24T08:06:04.199Z,42.20
2018-03-24T08:08:31.756Z,43.00
2018-03-24T08:10:59.377Z,44.50
2018-03-24T08:13:26.954Z,43.50
2018-03-24T08:15:54.579Z,41.60
2018-03-24T13:03:13.360Z,62.30
2018-03-24T13:05:40.906Z,61.90
2018-03-24T13:08:08.488Z,64.60
2018-03-24T13:10:36.668Z,62.10
2018-03-24T13:13:04.408Z,60.30
2018-03-24T13:15:32.005Z,61.20
2018-03-24T13:17:59.645Z,62.00
2018-03-24T13:20:27.216Z,63.40
2018-03-24T13:22:54.784Z,63.20
2018-03-24T13:25:22.836Z,60.20
2018-03-24T13:27:50.420Z,60.70
2018-03-24T13:30:17.982Z,64.80
2018-03-24T13:32:45.608Z,63.80
2018-03-24T13:35:27.768Z,58.30
2018-03-24T13:45:00.412Z,58.30
2018-03-24T13:47:27.965Z,58.40
2018-03-24T13:49:55.528Z,57.70
2018-03-24T13:52:23.141Z,56.90
2018-03-24T13:54:51.876Z,57.80
2018-03-24T13:57:19.449Z,58.80
2018-03-24T13:59:47.037Z,61.90
2018-03-24T14:02:26.556Z,62.90
2018-03-24T14:09:40.568Z,64.00
2018-03-24T14:12:08.112Z,64.00
2018-03-24T14:14:35.679Z,64.60
2018-03-24T14:17:03.308Z,67.90
2018-03-24T14:19:30.870Z,66.90
2018-03-24T14:21:58.449Z,62.90
2018-03-24T14:24:26.049Z,66.90
2018-03-24T14:26:53.623Z,65.30
2018-03-24T14:29:21.268Z,67.10
2018-03-24T14:31:48.884Z,66.80
2018-03-24T14:34:17.251Z,65.90
2018-03-24T14:36:44.829Z,65.90
2018-03-24T14:39:12.475Z,65.20
2018-03-24T14:41:40.813Z,65.80
2018-03-24T14:44:09.139Z,67.20
2018-03-24T14:46:36.712Z,67.70
2018-03-24T14:49:04.281Z,67.70
2018-03-24T14:51:31.846Z,68.60
2018-03-24T14:53:59.502Z,66.80
2018-03-24T14:56:27.103Z,66.50
2018-03-24T14:58:54.654Z,68.20
2018-03-24T15:01:22.992Z,68.40
2018-03-24T15:03:50.565Z,68.20
2018-03-24T15:06:18.130Z,67.20
2018-03-24T15:08:45.916Z,67.00
2018-03-24T15:11:25.333Z,65.40
2018-03-24T15:16:28.184Z,65.20
2018-03-24T15:18:55.720Z,64.50
2018-03-24T15:21:23.261Z,65.60
2018-03-24T15:23:50.824Z,64.90
2018-03-24T15:26:18.366Z,66.40
2018-03-24T15:28:57.684Z,66.80
2018-03-24T15:31:37.013Z,69.50
2018-03-24T15:34:16.436Z,68.40
2018-03-24T15:36:44.910Z,66.40
2018-03-24T15:39:12.528Z,66.80
2018-03-24T15:41:40.098Z,64.90
2018-03-24T15:44:07.635Z,68.60
2018-03-24T15:46:35.912Z,67.60
2018-03-24T15:49:03.480Z,67.20
2018-03-24T15:51:31.020Z,70.00
2018-03-24T15:53:58.556Z,70.20
2018-03-24T15:56:26.172Z,69.70
2018-03-24T15:58:53.814Z,69.10
2018-03-24T16:01:21.352Z,68.10
2018-03-24T16:03:48.917Z,67.70
2018-03-24T16:06:16.469Z,68.20
2018-03-24T16:08:44.806Z,69.30
2018-03-24T16:11:12.480Z,68.00
2018-03-24T16:13:40.792Z,67.80
2018-03-24T16:16:09.203Z,67.80
2018-03-24T16:18:36.989Z,68.50
2018-03-24T16:21:04.532Z,69.60
2018-03-24T16:23:32.083Z,69.70
2018-03-24T16:25:59.660Z,70.60
2018-03-24T16:28:27.203Z,71.80
2018-03-24T16:30:54.749Z,72.20
2018-03-24T16:33:22.518Z,71.50
2018-03-24T16:35:50.059Z,71.20
2018-03-24T16:38:17.604Z,70.40
2018-03-24T16:40:45.824Z,71.50
2018-03-24T16:43:14.556Z,72.40
2018-03-24T16:45:42.094Z,73.00
2018-03-24T16:48:09.688Z,74.40
2018-03-24T16:50:38.563Z,74.30
2018-03-24T16:53:06.141Z,74.10
2018-03-24T16:55:33.753Z,75.80
2018-03-24T16:58:01.293Z,74.80
2018-03-24T17:00:28.840Z,75.90
2018-03-24T17:02:56.433Z,76.40
2018-03-24T17:05:23.984Z,77.60
2018-03-24T17:07:51.687Z,78.40
2018-03-24T17:10:20.204Z,78.90
2018-03-24T17:12:48.272Z,78.90
2018-03-24T17:15:17.007Z,79.30
2018-03-24T17:17:46.411Z,80.20
2018-03-24T17:20:24.024Z,81.00
2018-03-24T17:37:13.436Z,87.20
2018-03-24T17:39:43.111Z,89.60
2018-03-24T17:42:12.437Z,89.50
2018-03-24T17:44:41.778Z,89.60
2018-03-24T17:47:09.654Z,89.50
2018-03-24T17:49:39.990Z,89.50
2018-03-24T17:52:07.590Z,89.40
2018-03-24T17:54:35.241Z,89.30
2018-03-24T17:57:04.544Z,89.60
2018-03-24T17:59:32.418Z,90.00
2018-03-24T18:02:08.996Z,90.20
2018-03-24T18:04:37.304Z,90.20
2018-03-24T18:07:05.290Z,90.00
2018-03-24T18:09:33.110Z,90.10
2018-03-24T18:12:03.969Z,90.30
2018-03-24T18:14:31.753Z,90.50
2018-03-24T18:16:59.874Z,90.70
2018-03-24T18:19:28.963Z,90.60
2018-03-24T18:21:56.676Z,90.60
2018-03-24T18:24:24.256Z,90.50
2018-03-24T18:26:51.872Z,90.60
2018-03-24T18:29:22.914Z,91.10
2018-03-24T18:31:51.921Z,90.70
2018-03-24T18:34:21.313Z,90.60
2018-03-24T18:36:49.209Z,90.50
2018-03-24T18:39:17.582Z,90.60
2018-03-24T18:41:45.469Z,90.80
2018-03-24T18:44:25.624Z,91.30
2018-03-24T18:49:32.592Z,91.10
2018-03-24T18:52:00.205Z,91.20
2018-03-24T18:54:27.831Z,91.40
2018-03-24T18:56:55.460Z,91.20
2018-03-24T18:59:23.492Z,91.00
2018-03-24T19:01:52.249Z,90.70
2018-03-24T19:04:19.811Z,90.70
2018-03-24T19:06:48.450Z,90.80
2018-03-24T19:09:17.256Z,90.50
2018-03-24T19:11:45.285Z,90.50
2018-03-24T19:14:14.593Z,91.10
2018-03-24T19:16:42.203Z,91.10
2018-03-24T19:19:10.089Z,90.90
2018-03-24T19:21:37.885Z,90.80
2018-03-24T19:24:05.464Z,90.70
2018-03-24T19:26:33.057Z,91.10
2018-03-24T19:29:00.636Z,91.10
2018-03-24T19:31:28.205Z,91.00
2018-03-24T19:33:56.239Z,91.20
